sensor_id;sensor_type;location;lat;lon;timestamp;P1;durP1;ratioP1;P2;durP2;ratioP2
823;SDS011;373;49.342;8.146;2022-10-16T00:01:04;1.40;;;0.40;;
823;SDS011;373;49.342;8.146;2022-10-16T00:03:33;1.42;;;0.50;;
823;SDS011;373;49.342;8.146;2022-10-16T00:06:00;0.52;;;0.52;;
823;SDS011;373;49.342;8.146;2022-10-16T00:08:27;0.80;;;0.80;;
823;SDS011;373;49.342;8.146;2022-10-16T00:10:58;0.98;;;0.43;;
823;SDS011;373;49.342;8.146;2022-10-16T00:13:28;1.15;;;0.43;;
823;SDS011;373;49.342;8.146;2022-10-16T00:15:55;0.82;;;0.40;;
823;SDS011;373;49.342;8.146;2022-10-16T00:18:23;0.47;;;0.40;;
823;SDS011;373;49.342;8.146;2022-10-16T00:20:50;1.48;;;0.70;;
823;SDS011;373;49.342;8.146;2022-10-16T00:23:17;0.82;;;0.47;;
823;SDS011;373;49.342;8.146;2022-10-16T00:25:45;1.30;;;0.57;;
823;SDS011;373;49.342;8.146;2022-10-16T00:28:22;0.65;;;0.60;;
823;SDS011;373;49.342;8.146;2022-10-16T00:30:50;0.85;;;0.80;;
823;SDS011;373;49.342;8.146;2022-10-16T00:33:17;0.60;;;0.60;;
823;SDS011;373;49.342;8.146;2022-10-16T00:35:45;1.50;;;0.60;;
823;SDS011;373;49.342;8.146;2022-10-16T00:38:12;0.85;;;0.73;;
823;SDS011;373;49.342;8.146;2022-10-16T00:40:39;1.10;;;0.57;;
823;SDS011;373;49.342;8.146;2022-10-16T00:43:09;1.63;;;0.80;;
823;SDS011;373;49.342;8.146;2022-10-16T00:45:40;1.40;;;0.88;;
823;SDS011;373;49.342;8.146;2022-10-16T00:48:11;3.80;;;0.75;;
823;SDS011;373;49.342;8.146;2022-10-16T00:50:40;1.40;;;0.77;;
823;SDS011;373;49.342;8.146;2022-10-16T00:53:09;1.25;;;0.70;;
823;SDS011;373;49.342;8.146;2022-10-16T00:55:38;1.92;;;1.00;;
823;SDS011;373;49.342;8.146;2022-10-16T00:58:05;2.28;;;1.17;;
823;SDS011;373;49.342;8.146;2022-10-16T01:00:32;1.67;;;0.90;;
823;SDS011;373;49.342;8.146;2022-10-16T01:03:01;1.10;;;0.80;;
823;SDS011;373;49.342;8.146;2022-10-16T01:05:32;0.60;;;0.60;;
823;SDS011;373;49.342;8.146;2022-10-16T01:08:07;1.13;;;0.80;;
823;SDS011;373;49.342;8.146;2022-10-16T01:10:39;1.00;;;1.00;;
823;SDS011;373;49.342;8.146;2022-10-16T01:13:11;0.90;;;0.90;;
823;SDS011;373;49.342;8.146;2022-10-16T01:15:45;2.05;;;1.20;;
823;SDS011;373;49.342;8.146;2022-10-16T01:18:16;0.80;;;0.80;;
823;SDS011;373;49.342;8.146;2022-10-16T01:20:50;1.80;;;0.73;;
823;SDS011;373;49.342;8.146;2022-10-16T01:23:28;1.23;;;1.00;;
823;SDS011;373;49.342;8.146;2022-10-16T01:26:09;1.38;;;1.20;;
823;SDS011;373;49.342;8.146;2022-10-16T01:28:51;1.38;;;1.27;;
823;SDS011;373;49.342;8.146;2022-10-16T01:31:22;1.20;;;1.05;;
823;SDS011;373;49.342;8.146;2022-10-16T01:33:56;2.15;;;1.00;;
823;SDS011;373;49.342;8.146;2022-10-16T01:36:29;4.25;;;0.98;;
823;SDS011;373;49.342;8.146;2022-10-16T01:39:02;3.33;;;0.75;;
823;SDS011;373;49.342;8.146;2022-10-16T01:41:30;0.80;;;0.80;;
823;SDS011;373;49.342;8.146;2022-10-16T01:44:02;1.65;;;1.00;;
823;SDS011;373;49.342;8.146;2022-10-16T01:46:32;0.77;;;0.70;;
823;SDS011;373;49.342;8.146;2022-10-16T01:49:03;1.50;;;0.95;;
823;SDS011;373;49.342;8.146;2022-10-16T01:51:31;1.10;;;1.00;;
823;SDS011;373;49.342;8.146;2022-10-16T01:54:00;1.65;;;0.50;;
823;SDS011;373;49.342;8.146;2022-10-16T01:56:28;1.50;;;0.60;;
823;SDS011;373;49.342;8.146;2022-10-16T01:58:57;1.80;;;0.80;;
823;SDS011;373;49.342;8.146;2022-10-16T02:01:29;1.23;;;0.77;;
823;SDS011;373;49.342;8.146;2022-10-16T02:04:02;0.80;;;0.80;;
823;SDS011;373;49.342;8.146;2022-10-16T02:06:34;0.93;;;0.70;;
823;SDS011;373;49.342;8.146;2022-10-16T02:09:02;1.65;;;1.20;;
823;SDS011;373;49.342;8.146;2022-10-16T02:11:29;2.40;;;1.23;;
823;SDS011;373;49.342;8.146;2022-10-16T02:13:58;1.02;;;0.90;;
823;SDS011;373;49.342;8.146;2022-10-16T02:16:34;1.38;;;1.00;;
823;SDS011;373;49.342;8.146;2022-10-16T02:19:02;12.70;;;10.50;;
823;SDS011;373;49.342;8.146;2022-10-16T02:21:32;9.20;;;7.55;;
823;SDS011;373;49.342;8.146;2022-10-16T02:24:06;2.83;;;1.02;;
823;SDS011;373;49.342;8.146;2022-10-16T02:26:40;1.33;;;1.10;;
823;SDS011;373;49.342;8.146;2022-10-16T02:29:13;1.70;;;1.42;;
823;SDS011;373;49.342;8.146;2022-10-16T02:31:45;4.15;;;2.10;;
823;SDS011;373;49.342;8.146;2022-10-16T02:34:16;1.73;;;1.63;;
823;SDS011;373;49.342;8.146;2022-10-16T02:36:44;2.15;;;1.00;;
823;SDS011;373;49.342;8.146;2022-10-16T02:39:13;2.25;;;1.33;;
823;SDS011;373;49.342;8.146;2022-10-16T02:41:41;1.70;;;1.25;;
823;SDS011;373;49.342;8.146;2022-10-16T02:44:09;2.65;;;1.20;;
823;SDS011;373;49.342;8.146;2022-10-16T02:46:36;5.85;;;1.77;;
823;SDS011;373;49.342;8.146;2022-10-16T02:49:05;2.72;;;1.35;;
823;SDS011;373;49.342;8.146;2022-10-16T02:51:32;1.15;;;0.80;;
823;SDS011;373;49.342;8.146;2022-10-16T02:53:59;1.35;;;1.08;;
823;SDS011;373;49.342;8.146;2022-10-16T02:56:26;1.60;;;1.20;;
823;SDS011;373;49.342;8.146;2022-10-16T02:58:53;1.00;;;1.00;;
823;SDS011;373;49.342;8.146;2022-10-16T03:01:20;2.22;;;1.50;;
823;SDS011;373;49.342;8.146;2022-10-16T03:03:47;1.73;;;1.30;;
823;SDS011;373;49.342;8.146;2022-10-16T03:06:15;1.77;;;1.30;;
823;SDS011;373;49.342;8.146;2022-10-16T03:08:42;2.58;;;1.85;;
823;SDS011;373;49.342;8.146;2022-10-16T03:11:09;2.03;;;1.35;;
823;SDS011;373;49.342;8.146;2022-10-16T03:13:36;2.13;;;1.70;;
823;SDS011;373;49.342;8.146;2022-10-16T03:16:03;3.20;;;1.33;;
823;SDS011;373;49.342;8.146;2022-10-16T03:18:31;3.70;;;1.23;;
823;SDS011;373;49.342;8.146;2022-10-16T03:20:58;2.45;;;1.42;;
823;SDS011;373;49.342;8.146;2022-10-16T03:23:26;1.38;;;1.20;;
823;SDS011;373;49.342;8.146;2022-10-16T03:25:54;4.15;;;1.40;;
823;SDS011;373;49.342;8.146;2022-10-16T03:28:21;1.48;;;1.38;;
823;SDS011;373;49.342;8.146;2022-10-16T03:30:48;1.77;;;1.30;;
823;SDS011;373;49.342;8.146;2022-10-16T03:33:15;1.90;;;1.35;;
823;SDS011;373;49.342;8.146;2022-10-16T03:35:42;1.83;;;1.67;;
823;SDS011;373;49.342;8.146;2022-10-16T03:38:09;3.22;;;1.73;;
823;SDS011;373;49.342;8.146;2022-10-16T03:40:37;1.65;;;1.55;;
823;SDS011;373;49.342;8.146;2022-10-16T03:43:04;2.92;;;1.35;;
823;SDS011;373;49.342;8.146;2022-10-16T03:45:31;3.20;;;1.65;;
823;SDS011;373;49.342;8.146;2022-10-16T03:47:58;2.85;;;1.27;;
823;SDS011;373;49.342;8.146;2022-10-16T03:50:25;1.48;;;1.38;;
823;SDS011;373;49.342;8.146;2022-10-16T03:52:52;3.75;;;1.20;;
823;SDS011;373;49.342;8.146;2022-10-16T03:55:19;3.40;;;1.60;;
823;SDS011;373;49.342;8.146;2022-10-16T03:57:48;2.35;;;1.40;;
823;SDS011;373;49.342;8.146;2022-10-16T04:00:15;5.13;;;1.45;;
823;SDS011;373;49.342;8.146;2022-10-16T04:02:42;2.85;;;1.33;;
823;SDS011;373;49.342;8.146;2022-10-16T04:05:09;2.80;;;1.48;;
823;SDS011;373;49.342;8.146;2022-10-16T04:07:36;1.40;;;1.30;;
823;SDS011;373;49.342;8.146;2022-10-16T04:10:04;1.20;;;1.20;;
823;SDS011;373;49.342;8.146;2022-10-16T04:12:32;3.17;;;1.58;;
823;SDS011;373;49.342;8.146;2022-10-16T04:15:00;1.73;;;1.20;;
823;SDS011;373;49.342;8.146;2022-10-16T04:17:27;1.90;;;1.50;;
823;SDS011;373;49.342;8.146;2022-10-16T04:19:54;2.13;;;1.45;;
823;SDS011;373;49.342;8.146;2022-10-16T04:22:21;1.50;;;1.40;;
823;SDS011;373;49.342;8.146;2022-10-16T04:24:48;2.55;;;1.45;;
823;SDS011;373;49.342;8.146;2022-10-16T04:27:15;1.92;;;1.30;;
823;SDS011;373;49.342;8.146;2022-10-16T04:29:42;2.70;;;1.60;;
823;SDS011;373;49.342;8.146;2022-10-16T04:32:11;2.20;;;1.73;;
823;SDS011;373;49.342;8.146;2022-10-16T04:34:38;1.73;;;1.48;;
823;SDS011;373;49.342;8.146;2022-10-16T04:37:06;3.05;;;1.90;;
823;SDS011;373;49.342;8.146;2022-10-16T04:39:33;1.48;;;1.38;;
823;SDS011;373;49.342;8.146;2022-10-16T04:42:00;2.58;;;1.90;;
823;SDS011;373;49.342;8.146;2022-10-16T04:44:27;2.50;;;1.90;;
823;SDS011;373;49.342;8.146;2022-10-16T04:46:54;4.78;;;1.40;;
823;SDS011;373;49.342;8.146;2022-10-16T04:49:23;2.05;;;1.90;;
823;SDS011;373;49.342;8.146;2022-10-16T04:51:50;2.67;;;1.77;;
823;SDS011;373;49.342;8.146;2022-10-16T04:54:17;2.72;;;1.73;;
823;SDS011;373;49.342;8.146;2022-10-16T04:56:44;2.20;;;2.10;;
823;SDS011;373;49.342;8.146;2022-10-16T04:59:13;3.10;;;2.58;;
823;SDS011;373;49.342;8.146;2022-10-16T05:01:40;3.33;;;2.28;;
823;SDS011;373;49.342;8.146;2022-10-16T05:04:07;3.10;;;1.98;;
823;SDS011;373;49.342;8.146;2022-10-16T05:06:36;2.38;;;2.22;;
823;SDS011;373;49.342;8.146;2022-10-16T05:09:04;5.35;;;2.75;;
823;SDS011;373;49.342;8.146;2022-10-16T05:11:32;2.17;;;2.00;;
823;SDS011;373;49.342;8.146;2022-10-16T05:13:59;2.30;;;1.58;;
823;SDS011;373;49.342;8.146;2022-10-16T05:16:27;2.85;;;2.60;;
823;SDS011;373;49.342;8.146;2022-10-16T05:18:54;4.95;;;2.63;;
823;SDS011;373;49.342;8.146;2022-10-16T05:21:21;2.33;;;1.83;;
823;SDS011;373;49.342;8.146;2022-10-16T05:23:50;1.90;;;1.80;;
823;SDS011;373;49.342;8.146;2022-10-16T05:26:17;2.67;;;2.45;;
823;SDS011;373;49.342;8.146;2022-10-16T05:28:44;5.10;;;3.13;;
823;SDS011;373;49.342;8.146;2022-10-16T05:31:11;3.88;;;3.40;;
823;SDS011;373;49.342;8.146;2022-10-16T05:33:38;3.25;;;2.67;;
823;SDS011;373;49.342;8.146;2022-10-16T05:36:06;3.20;;;2.65;;
823;SDS011;373;49.342;8.146;2022-10-16T05:38:34;2.67;;;2.47;;
823;SDS011;373;49.342;8.146;2022-10-16T05:41:03;3.70;;;2.80;;
823;SDS011;373;49.342;8.146;2022-10-16T05:43:31;3.08;;;2.10;;
823;SDS011;373;49.342;8.146;2022-10-16T05:45:59;3.17;;;2.47;;
823;SDS011;373;49.342;8.146;2022-10-16T05:48:28;3.63;;;3.38;;
823;SDS011;373;49.342;8.146;2022-10-16T05:50:58;2.85;;;2.65;;
823;SDS011;373;49.342;8.146;2022-10-16T05:53:26;4.80;;;2.03;;
823;SDS011;373;49.342;8.146;2022-10-16T05:55:54;4.82;;;2.30;;
823;SDS011;373;49.342;8.146;2022-10-16T05:58:23;4.43;;;2.33;;
823;SDS011;373;49.342;8.146;2022-10-16T06:00:54;4.18;;;2.60;;
823;SDS011;373;49.342;8.146;2022-10-16T06:03:22;2.70;;;2.50;;
823;SDS011;373;49.342;8.146;2022-10-16T06:05:49;3.95;;;3.13;;
823;SDS011;373;49.342;8.146;2022-10-16T06:08:16;4.88;;;4.38;;
823;SDS011;373;49.342;8.146;2022-10-16T06:10:44;4.22;;;2.35;;
823;SDS011;373;49.342;8.146;2022-10-16T06:13:12;4.03;;;3.72;;
823;SDS011;373;49.342;8.146;2022-10-16T06:15:41;2.50;;;2.30;;
823;SDS011;373;49.342;8.146;2022-10-16T06:18:09;3.15;;;2.63;;
823;SDS011;373;49.342;8.146;2022-10-16T06:20:36;2.25;;;2.05;;
823;SDS011;373;49.342;8.146;2022-10-16T06:23:03;3.85;;;2.20;;
823;SDS011;373;49.342;8.146;2022-10-16T06:25:30;3.60;;;2.40;;
823;SDS011;373;49.342;8.146;2022-10-16T06:27:58;2.13;;;1.92;;
823;SDS011;373;49.342;8.146;2022-10-16T06:30:25;2.28;;;1.80;;
823;SDS011;373;49.342;8.146;2022-10-16T06:32:53;2.67;;;2.40;;
823;SDS011;373;49.342;8.146;2022-10-16T06:35:20;3.78;;;1.95;;
823;SDS011;373;49.342;8.146;2022-10-16T06:37:47;2.85;;;2.58;;
823;SDS011;373;49.342;8.146;2022-10-16T06:40:14;3.00;;;2.42;;
823;SDS011;373;49.342;8.146;2022-10-16T06:42:41;3.35;;;2.45;;
823;SDS011;373;49.342;8.146;2022-10-16T06:45:09;3.10;;;2.65;;
823;SDS011;373;49.342;8.146;2022-10-16T06:47:36;2.53;;;2.30;;
823;SDS011;373;49.342;8.146;2022-10-16T06:50:05;3.75;;;2.20;;
823;SDS011;373;49.342;8.146;2022-10-16T06:52:33;2.78;;;2.58;;
823;SDS011;373;49.342;8.146;2022-10-16T06:55:00;4.28;;;2.30;;
823;SDS011;373;49.342;8.146;2022-10-16T06:57:28;3.58;;;3.28;;
823;SDS011;373;49.342;8.146;2022-10-16T06:59:55;3.05;;;2.28;;
823;SDS011;373;49.342;8.146;2022-10-16T07:02:22;2.75;;;2.30;;
823;SDS011;373;49.342;8.146;2022-10-16T07:04:49;2.78;;;1.80;;
823;SDS011;373;49.342;8.146;2022-10-16T07:07:17;2.42;;;2.13;;
823;SDS011;373;49.342;8.146;2022-10-16T07:09:44;3.03;;;2.55;;
823;SDS011;373;49.342;8.146;2022-10-16T07:12:11;5.00;;;4.50;;
823;SDS011;373;49.342;8.146;2022-10-16T07:14:38;7.32;;;6.70;;
823;SDS011;373;49.342;8.146;2022-10-16T07:17:05;4.95;;;4.55;;
823;SDS011;373;49.342;8.146;2022-10-16T07:19:32;4.95;;;3.72;;
823;SDS011;373;49.342;8.146;2022-10-16T07:21:59;3.13;;;2.70;;
823;SDS011;373;49.342;8.146;2022-10-16T07:24:28;2.88;;;1.83;;
823;SDS011;373;49.342;8.146;2022-10-16T07:26:55;2.58;;;1.92;;
823;SDS011;373;49.342;8.146;2022-10-16T07:29:22;4.32;;;1.90;;
823;SDS011;373;49.342;8.146;2022-10-16T07:31:50;1.63;;;1.52;;
823;SDS011;373;49.342;8.146;2022-10-16T07:34:18;1.70;;;1.60;;
823;SDS011;373;49.342;8.146;2022-10-16T07:36:47;2.15;;;1.63;;
823;SDS011;373;49.342;8.146;2022-10-16T07:39:14;2.05;;;1.42;;
823;SDS011;373;49.342;8.146;2022-10-16T07:41:43;1.73;;;1.50;;
823;SDS011;373;49.342;8.146;2022-10-16T07:44:10;4.30;;;1.70;;
823;SDS011;373;49.342;8.146;2022-10-16T07:46:37;2.10;;;1.90;;
823;SDS011;373;49.342;8.146;2022-10-16T07:49:04;2.05;;;1.63;;
823;SDS011;373;49.342;8.146;2022-10-16T07:51:31;4.57;;;2.72;;
823;SDS011;373;49.342;8.146;2022-10-16T07:53:58;2.08;;;1.98;;
823;SDS011;373;49.342;8.146;2022-10-16T07:56:26;4.00;;;2.30;;
823;SDS011;373;49.342;8.146;2022-10-16T07:58:54;2.20;;;2.10;;
823;SDS011;373;49.342;8.146;2022-10-16T08:01:21;3.40;;;2.20;;
823;SDS011;373;49.342;8.146;2022-10-16T08:03:49;2.70;;;1.95;;
823;SDS011;373;49.342;8.146;2022-10-16T08:06:17;2.97;;;1.90;;
823;SDS011;373;49.342;8.146;2022-10-16T08:08:45;7.25;;;1.92;;
823;SDS011;373;49.342;8.146;2022-10-16T08:11:12;2.22;;;2.03;;
823;SDS011;373;49.342;8.146;2022-10-16T08:13:40;3.42;;;2.60;;
823;SDS011;373;49.342;8.146;2022-10-16T08:16:09;1.88;;;1.60;;
823;SDS011;373;49.342;8.146;2022-10-16T08:18:36;2.72;;;2.10;;
823;SDS011;373;49.342;8.146;2022-10-16T08:21:05;2.00;;;1.80;;
823;SDS011;373;49.342;8.146;2022-10-16T08:23:33;1.55;;;1.35;;
823;SDS011;373;49.342;8.146;2022-10-16T08:26:04;3.72;;;1.80;;
823;SDS011;373;49.342;8.146;2022-10-16T08:28:32;3.15;;;1.40;;
823;SDS011;373;49.342;8.146;2022-10-16T08:31:06;1.33;;;1.05;;
823;SDS011;373;49.342;8.146;2022-10-16T08:33:36;1.58;;;1.35;;
823;SDS011;373;49.342;8.146;2022-10-16T08:36:04;3.90;;;1.27;;
823;SDS011;373;49.342;8.146;2022-10-16T08:38:32;2.97;;;1.50;;
823;SDS011;373;49.342;8.146;2022-10-16T08:41:02;1.55;;;1.45;;
823;SDS011;373;49.342;8.146;2022-10-16T08:44:18;3.15;;;1.52;;
823;SDS011;373;49.342;8.146;2022-10-16T08:47:00;1.90;;;1.75;;
823;SDS011;373;49.342;8.146;2022-10-16T08:49:34;2.10;;;1.52;;
823;SDS011;373;49.342;8.146;2022-10-16T08:52:08;1.67;;;1.58;;
823;SDS011;373;49.342;8.146;2022-10-16T08:54:44;2.88;;;2.17;;
823;SDS011;373;49.342;8.146;2022-10-16T08:57:17;3.78;;;2.25;;
823;SDS011;373;49.342;8.146;2022-10-16T08:59:49;1.88;;;1.55;;
823;SDS011;373;49.342;8.146;2022-10-16T09:02:22;1.40;;;1.30;;
823;SDS011;373;49.342;8.146;2022-10-16T09:04:54;1.88;;;1.42;;
823;SDS011;373;49.342;8.146;2022-10-16T09:07:44;2.25;;;1.40;;
823;SDS011;373;49.342;8.146;2022-10-16T09:10:24;1.45;;;1.35;;
823;SDS011;373;49.342;8.146;2022-10-16T09:13:01;2.15;;;1.63;;
823;SDS011;373;49.342;8.146;2022-10-16T09:15:37;2.03;;;1.20;;
823;SDS011;373;49.342;8.146;2022-10-16T09:18:15;1.48;;;1.38;;
823;SDS011;373;49.342;8.146;2022-10-16T09:20:49;2.13;;;1.42;;
823;SDS011;373;49.342;8.146;2022-10-16T09:23:22;1.40;;;1.30;;
823;SDS011;373;49.342;8.146;2022-10-16T09:25:53;3.65;;;1.40;;
823;SDS011;373;49.342;8.146;2022-10-16T09:28:22;1.63;;;1.50;;
823;SDS011;373;49.342;8.146;2022-10-16T09:30:49;1.65;;;1.55;;
823;SDS011;373;49.342;8.146;2022-10-16T09:33:18;1.63;;;1.52;;
823;SDS011;373;49.342;8.146;2022-10-16T09:35:48;1.45;;;1.33;;
823;SDS011;373;49.342;8.146;2022-10-16T09:38:24;2.20;;;1.50;;
823;SDS011;373;49.342;8.146;2022-10-16T09:40:53;2.38;;;1.40;;
823;SDS011;373;49.342;8.146;2022-10-16T09:43:22;1.65;;;1.55;;
823;SDS011;373;49.342;8.146;2022-10-16T09:45:53;1.42;;;1.30;;
823;SDS011;373;49.342;8.146;2022-10-16T09:48:22;2.35;;;1.60;;
823;SDS011;373;49.342;8.146;2022-10-16T09:50:57;2.53;;;1.58;;
823;SDS011;373;49.342;8.146;2022-10-16T09:53:26;1.60;;;1.50;;
823;SDS011;373;49.342;8.146;2022-10-16T09:56:05;2.25;;;1.40;;
823;SDS011;373;49.342;8.146;2022-10-16T09:58:32;3.72;;;1.73;;
823;SDS011;373;49.342;8.146;2022-10-16T10:00:59;1.55;;;1.25;;
823;SDS011;373;49.342;8.146;2022-10-16T10:03:33;1.48;;;1.30;;
823;SDS011;373;49.342;8.146;2022-10-16T10:06:04;2.17;;;1.60;;
823;SDS011;373;49.342;8.146;2022-10-16T10:08:56;2.40;;;1.52;;
823;SDS011;373;49.342;8.146;2022-10-16T10:11:40;2.08;;;1.48;;
823;SDS011;373;49.342;8.146;2022-10-16T10:14:16;2.08;;;1.58;;
823;SDS011;373;49.342;8.146;2022-10-16T10:16:45;1.67;;;1.15;;
823;SDS011;373;49.342;8.146;2022-10-16T10:19:16;2.78;;;1.20;;
823;SDS011;373;49.342;8.146;2022-10-16T10:21:44;2.72;;;1.45;;
823;SDS011;373;49.342;8.146;2022-10-16T10:24:11;2.67;;;1.30;;
823;SDS011;373;49.342;8.146;2022-10-16T10:26:41;1.40;;;1.30;;
823;SDS011;373;49.342;8.146;2022-10-16T10:29:28;1.30;;;1.10;;
823;SDS011;373;49.342;8.146;2022-10-16T10:32:09;1.45;;;1.10;;
823;SDS011;373;49.342;8.146;2022-10-16T10:34:50;2.40;;;1.20;;
823;SDS011;373;49.342;8.146;2022-10-16T10:37:27;1.70;;;0.90;;
823;SDS011;373;49.342;8.146;2022-10-16T10:40:03;1.85;;;1.20;;
823;SDS011;373;49.342;8.146;2022-10-16T10:42:39;2.03;;;1.17;;
823;SDS011;373;49.342;8.146;2022-10-16T10:45:16;2.17;;;1.40;;
823;SDS011;373;49.342;8.146;2022-10-16T10:47:51;1.70;;;1.13;;
823;SDS011;373;49.342;8.146;2022-10-16T10:50:30;1.27;;;1.08;;
823;SDS011;373;49.342;8.146;2022-10-16T10:53:05;1.10;;;1.10;;
823;SDS011;373;49.342;8.146;2022-10-16T10:55:39;2.00;;;1.30;;
823;SDS011;373;49.342;8.146;2022-10-16T11:01:07;2.15;;;0.95;;
823;SDS011;373;49.342;8.146;2022-10-16T11:03:42;0.80;;;0.80;;
823;SDS011;373;49.342;8.146;2022-10-16T11:06:25;2.80;;;1.00;;
823;SDS011;373;49.342;8.146;2022-10-16T11:08:58;1.10;;;1.00;;
823;SDS011;373;49.342;8.146;2022-10-16T11:11:29;1.45;;;0.95;;
823;SDS011;373;49.342;8.146;2022-10-16T11:14:00;1.20;;;1.10;;
823;SDS011;373;49.342;8.146;2022-10-16T11:16:32;2.25;;;1.20;;
823;SDS011;373;49.342;8.146;2022-10-16T11:19:04;2.13;;;1.10;;
823;SDS011;373;49.342;8.146;2022-10-16T11:21:42;0.98;;;0.90;;
823;SDS011;373;49.342;8.146;2022-10-16T11:24:16;3.15;;;1.05;;
823;SDS011;373;49.342;8.146;2022-10-16T11:26:49;1.15;;;1.02;;
823;SDS011;373;49.342;8.146;2022-10-16T11:29:22;1.80;;;0.90;;
823;SDS011;373;49.342;8.146;2022-10-16T11:31:53;1.38;;;1.27;;
823;SDS011;373;49.342;8.146;2022-10-16T11:34:24;2.63;;;1.38;;
823;SDS011;373;49.342;8.146;2022-10-16T11:36:57;2.97;;;1.75;;
823;SDS011;373;49.342;8.146;2022-10-16T11:39:29;2.05;;;1.40;;
823;SDS011;373;49.342;8.146;2022-10-16T11:41:59;1.80;;;1.70;;
823;SDS011;373;49.342;8.146;2022-10-16T11:44:38;2.28;;;1.40;;
823;SDS011;373;49.342;8.146;2022-10-16T11:47:13;2.22;;;1.42;;
823;SDS011;373;49.342;8.146;2022-10-16T11:49:49;1.42;;;1.30;;
823;SDS011;373;49.342;8.146;2022-10-16T11:52:22;1.50;;;1.40;;
823;SDS011;373;49.342;8.146;2022-10-16T11:54:56;1.90;;;1.80;;
823;SDS011;373;49.342;8.146;2022-10-16T11:57:31;1.33;;;1.23;;
823;SDS011;373;49.342;8.146;2022-10-16T12:00:02;2.33;;;1.38;;
823;SDS011;373;49.342;8.146;2022-10-16T12:02:40;2.30;;;1.30;;
823;SDS011;373;49.342;8.146;2022-10-16T12:05:22;2.35;;;2.15;;
823;SDS011;373;49.342;8.146;2022-10-16T12:08:00;1.42;;;0.98;;
823;SDS011;373;49.342;8.146;2022-10-16T12:10:32;1.33;;;1.10;;
823;SDS011;373;49.342;8.146;2022-10-16T12:13:02;2.47;;;1.20;;
823;SDS011;373;49.342;8.146;2022-10-16T12:15:31;2.65;;;1.27;;
823;SDS011;373;49.342;8.146;2022-10-16T12:17:59;4.53;;;1.40;;
823;SDS011;373;49.342;8.146;2022-10-16T12:20:28;2.65;;;1.63;;
823;SDS011;373;49.342;8.146;2022-10-16T12:22:59;2.55;;;1.52;;
823;SDS011;373;49.342;8.146;2022-10-16T12:25:29;1.95;;;1.52;;
823;SDS011;373;49.342;8.146;2022-10-16T12:28:01;3.17;;;1.67;;
823;SDS011;373;49.342;8.146;2022-10-16T12:30:30;1.67;;;1.40;;
823;SDS011;373;49.342;8.146;2022-10-16T12:33:00;2.47;;;1.55;;
823;SDS011;373;49.342;8.146;2022-10-16T12:35:30;2.50;;;1.60;;
823;SDS011;373;49.342;8.146;2022-10-16T12:38:08;3.33;;;1.67;;
823;SDS011;373;49.342;8.146;2022-10-16T12:40:42;4.18;;;1.83;;
823;SDS011;373;49.342;8.146;2022-10-16T12:43:11;4.18;;;1.58;;
823;SDS011;373;49.342;8.146;2022-10-16T12:45:58;1.85;;;1.70;;
823;SDS011;373;49.342;8.146;2022-10-16T12:48:27;2.03;;;1.70;;
823;SDS011;373;49.342;8.146;2022-10-16T12:50:55;2.03;;;1.60;;
823;SDS011;373;49.342;8.146;2022-10-16T12:53:24;2.00;;;1.80;;
823;SDS011;373;49.342;8.146;2022-10-16T12:55:56;2.35;;;1.75;;
823;SDS011;373;49.342;8.146;2022-10-16T12:58:36;3.08;;;1.83;;
823;SDS011;373;49.342;8.146;2022-10-16T13:01:40;5.57;;;1.55;;
823;SDS011;373;49.342;8.146;2022-10-16T13:07:19;1.83;;;1.52;;
823;SDS011;373;49.342;8.146;2022-10-16T13:10:02;3.50;;;1.63;;
823;SDS011;373;49.342;8.146;2022-10-16T13:12:44;1.92;;;1.80;;
823;SDS011;373;49.342;8.146;2022-10-16T13:15:25;1.73;;;1.58;;
823;SDS011;373;49.342;8.146;2022-10-16T13:18:03;2.83;;;1.90;;
823;SDS011;373;49.342;8.146;2022-10-16T13:20:43;1.88;;;1.60;;
823;SDS011;373;49.342;8.146;2022-10-16T13:23:23;3.10;;;1.58;;
823;SDS011;373;49.342;8.146;2022-10-16T13:26:00;1.55;;;1.45;;
823;SDS011;373;49.342;8.146;2022-10-16T13:28:35;2.05;;;1.60;;
823;SDS011;373;49.342;8.146;2022-10-16T13:31:03;1.83;;;1.73;;
823;SDS011;373;49.342;8.146;2022-10-16T13:33:32;1.70;;;1.60;;
823;SDS011;373;49.342;8.146;2022-10-16T13:36:01;2.10;;;1.63;;
823;SDS011;373;49.342;8.146;2022-10-16T13:38:29;3.75;;;1.85;;
823;SDS011;373;49.342;8.146;2022-10-16T13:41:00;1.95;;;1.83;;
823;SDS011;373;49.342;8.146;2022-10-16T13:43:31;4.03;;;1.70;;
823;SDS011;373;49.342;8.146;2022-10-16T13:46:02;1.73;;;1.63;;
823;SDS011;373;49.342;8.146;2022-10-16T13:48:30;2.20;;;2.00;;
823;SDS011;373;49.342;8.146;2022-10-16T13:51:02;3.20;;;1.90;;
823;SDS011;373;49.342;8.146;2022-10-16T13:53:31;3.25;;;2.05;;
823;SDS011;373;49.342;8.146;2022-10-16T13:56:00;3.63;;;1.80;;
823;SDS011;373;49.342;8.146;2022-10-16T13:58:29;2.17;;;1.77;;
823;SDS011;373;49.342;8.146;2022-10-16T14:00:57;2.85;;;1.88;;
823;SDS011;373;49.342;8.146;2022-10-16T14:03:26;4.35;;;2.15;;
823;SDS011;373;49.342;8.146;2022-10-16T14:05:55;1.80;;;1.70;;
823;SDS011;373;49.342;8.146;2022-10-16T14:08:24;2.67;;;1.67;;
823;SDS011;373;49.342;8.146;2022-10-16T14:10:54;6.97;;;2.25;;
823;SDS011;373;49.342;8.146;2022-10-16T14:13:26;3.90;;;1.90;;
823;SDS011;373;49.342;8.146;2022-10-16T14:15:57;4.68;;;1.75;;
823;SDS011;373;49.342;8.146;2022-10-16T14:18:28;2.70;;;1.98;;
823;SDS011;373;49.342;8.146;2022-10-16T14:20:55;2.28;;;2.03;;
823;SDS011;373;49.342;8.146;2022-10-16T14:23:30;3.88;;;2.00;;
823;SDS011;373;49.342;8.146;2022-10-16T14:26:12;2.60;;;2.20;;
823;SDS011;373;49.342;8.146;2022-10-16T14:28:42;2.25;;;1.60;;
823;SDS011;373;49.342;8.146;2022-10-16T14:31:23;4.82;;;1.85;;
823;SDS011;373;49.342;8.146;2022-10-16T14:33:52;2.67;;;1.88;;
823;SDS011;373;49.342;8.146;2022-10-16T14:36:19;2.25;;;2.05;;
823;SDS011;373;49.342;8.146;2022-10-16T14:38:48;2.42;;;2.03;;
823;SDS011;373;49.342;8.146;2022-10-16T14:41:20;3.60;;;2.28;;
823;SDS011;373;49.342;8.146;2022-10-16T14:43:51;2.95;;;2.22;;
823;SDS011;373;49.342;8.146;2022-10-16T14:46:22;5.72;;;2.22;;
823;SDS011;373;49.342;8.146;2022-10-16T14:48:56;6.47;;;2.08;;
823;SDS011;373;49.342;8.146;2022-10-16T14:51:28;4.53;;;2.67;;
823;SDS011;373;49.342;8.146;2022-10-16T14:53:55;4.65;;;2.17;;
823;SDS011;373;49.342;8.146;2022-10-16T14:56:23;4.18;;;2.38;;
823;SDS011;373;49.342;8.146;2022-10-16T14:58:55;2.20;;;1.80;;
823;SDS011;373;49.342;8.146;2022-10-16T15:01:23;2.25;;;2.05;;
823;SDS011;373;49.342;8.146;2022-10-16T15:03:50;3.53;;;2.65;;
823;SDS011;373;49.342;8.146;2022-10-16T15:06:19;3.35;;;2.10;;
823;SDS011;373;49.342;8.146;2022-10-16T15:08:47;2.70;;;2.33;;
823;SDS011;373;49.342;8.146;2022-10-16T15:11:15;2.58;;;2.38;;
823;SDS011;373;49.342;8.146;2022-10-16T15:13:43;7.38;;;2.47;;
823;SDS011;373;49.342;8.146;2022-10-16T15:16:12;2.08;;;1.98;;
823;SDS011;373;49.342;8.146;2022-10-16T15:18:41;3.45;;;2.20;;
823;SDS011;373;49.342;8.146;2022-10-16T15:21:08;2.55;;;2.13;;
823;SDS011;373;49.342;8.146;2022-10-16T15:23:48;2.65;;;2.28;;
823;SDS011;373;49.342;8.146;2022-10-16T15:26:16;2.97;;;2.10;;
823;SDS011;373;49.342;8.146;2022-10-16T15:28:43;2.92;;;2.15;;
823;SDS011;373;49.342;8.146;2022-10-16T15:31:11;3.13;;;2.30;;
823;SDS011;373;49.342;8.146;2022-10-16T15:33:38;2.50;;;2.30;;
823;SDS011;373;49.342;8.146;2022-10-16T15:36:06;3.50;;;2.60;;
823;SDS011;373;49.342;8.146;2022-10-16T15:38:33;2.00;;;1.90;;
823;SDS011;373;49.342;8.146;2022-10-16T15:41:01;3.00;;;2.22;;
823;SDS011;373;49.342;8.146;2022-10-16T15:43:28;3.28;;;2.33;;
823;SDS011;373;49.342;8.146;2022-10-16T15:45:58;2.33;;;2.13;;
823;SDS011;373;49.342;8.146;2022-10-16T15:48:28;3.53;;;2.60;;
823;SDS011;373;49.342;8.146;2022-10-16T15:50:56;3.13;;;2.13;;
823;SDS011;373;49.342;8.146;2022-10-16T15:53:23;2.13;;;1.75;;
823;SDS011;373;49.342;8.146;2022-10-16T15:55:50;3.05;;;2.17;;
823;SDS011;373;49.342;8.146;2022-10-16T15:58:17;3.25;;;2.45;;
823;SDS011;373;49.342;8.146;2022-10-16T16:00:45;2.03;;;1.90;;
823;SDS011;373;49.342;8.146;2022-10-16T16:03:19;3.00;;;2.13;;
823;SDS011;373;49.342;8.146;2022-10-16T16:05:48;1.98;;;1.88;;
823;SDS011;373;49.342;8.146;2022-10-16T16:08:15;3.70;;;2.90;;
823;SDS011;373;49.342;8.146;2022-10-16T16:10:42;3.00;;;2.70;;